Time;durP1;ratioP1;P1;durP2;ratioP2;P2;SDS_P1;SDS_P2;PMS_P1;PMS_P2;Temp;Humidity;BMP_temperature;BMP_pressure;BME280_temperature;BME280_humidity;BME280_pressure;Samples;Min_cycle;Max_cycle;Signal;HPM_P1;HPM_P2
2023/11/10 00:00:52;;;;;;;1.25;1.25;;;9.00;99.90;;;;;;5031545;28;20541;-63
2023/11/10 00:03:18;;;;;;;1.33;1.23;;;9.00;99.90;;;;;;5031446;28;20233;-63
2023/11/10 00:05:45;;;;;;;1.40;1.23;;;8.90;99.90;;;;;;5031192;28;20589;-63
2023/11/10 00:08:13;;;;;;;2.10;1.35;;;8.90;99.90;;;;;;5031509;28;20701;-63
2023/11/10 00:10:40;;;;;;;1.10;1.10;;;8.90;99.90;;;;;;5031276;28;20231;-63
2023/11/10 00:13:07;;;;;;;5.25;1.15;;;8.80;99.90;;;;;;5040210;28;20932;-63
2023/11/10 00:15:36;;;;;;;2.55;1.38;;;8.80;99.90;;;;;;5050744;28;20210;-63
2023/11/10 00:18:03;;;;;;;1.87;1.17;;;8.80;99.90;;;;;;5051234;28;20301;-63
2023/11/10 00:20:31;;;;;;;0.70;0.70;;;8.80;99.90;;;;;;5051161;28;20568;-63
2023/11/10 00:22:58;;;;;;;1.23;1.13;;;8.70;99.90;;;;;;5051267;28;20452;-63
2023/11/10 00:25:25;;;;;;;4.23;1.10;;;8.70;99.90;;;;;;5051223;28;20502;-63
2023/11/10 00:27:52;;;;;;;1.55;1.45;;;8.70;99.90;;;;;;5050999;28;20444;-63
2023/11/10 00:30:20;;;;;;;1.30;1.20;;;8.70;99.90;;;;;;5051053;28;20227;-63
2023/11/10 00:39:32;;;;;;;1.08;0.95;;;8.70;99.90;;;;;;5050824;28;20205;-63
2023/11/10 00:41:59;;;;;;;1.63;1.52;;;8.60;99.90;;;;;;5050785;28;20302;-63
2023/11/10 00:44:27;;;;;;;1.10;0.98;;;8.60;99.90;;;;;;5050820;28;20322;-63
2023/11/10 00:46:54;;;;;;;1.45;1.35;;;8.70;99.90;;;;;;5050881;28;20623;-63
2023/11/10 00:49:21;;;;;;;2.90;1.17;;;8.60;99.90;;;;;;5050920;28;20206;-63
2023/11/10 00:51:49;;;;;;;1.23;1.00;;;8.60;99.90;;;;;;5050809;28;20234;-63
2023/11/10 00:54:16;;;;;;;0.95;0.80;;;8.60;99.90;;;;;;5050878;28;20222;-63
2023/11/10 00:56:44;;;;;;;2.60;0.77;;;8.60;99.90;;;;;;5050777;28;20697;-63
2023/11/10 00:59:11;;;;;;;1.75;1.02;;;8.60;99.90;;;;;;5051075;28;20559;-63
2023/11/10 01:01:38;;;;;;;1.30;1.30;;;8.60;99.90;;;;;;5050909;28;20233;-63
2023/11/10 01:04:07;;;;;;;1.52;0.77;;;8.60;99.90;;;;;;5050748;28;20491;-63
2023/11/10 01:06:34;;;;;;;1.85;1.20;;;8.60;99.90;;;;;;5050462;28;20757;-63
2023/11/10 01:09:02;;;;;;;1.00;1.00;;;8.60;99.90;;;;;;5051063;28;20303;-63
2023/11/10 01:11:29;;;;;;;3.05;1.55;;;8.60;99.90;;;;;;5051026;28;20230;-63
2023/11/10 01:13:57;;;;;;;0.80;0.80;;;8.60;99.90;;;;;;5050954;28;20202;-63
2023/11/10 01:16:24;;;;;;;3.80;1.30;;;8.60;99.90;;;;;;5050621;28;20206;-63
2023/11/10 01:18:51;;;;;;;1.08;0.95;;;8.60;99.90;;;;;;5050894;28;20297;-63
2023/11/10 01:21:18;;;;;;;1.00;0.90;;;8.60;99.90;;;;;;5050776;28;20237;-63
2023/11/10 01:23:45;;;;;;;0.93;0.93;;;8.60;99.90;;;;;;5050816;28;20230;-63
2023/11/10 01:26:14;;;;;;;1.10;1.08;;;8.60;99.90;;;;;;5050554;28;20630;-63
2023/11/10 01:28:41;;;;;;;0.90;0.90;;;8.60;99.90;;;;;;5050779;28;20206;-63
2023/11/10 01:31:09;;;;;;;0.90;0.90;;;8.60;99.90;;;;;;5050609;28;20313;-63
2023/11/10 01:33:36;;;;;;;1.85;0.80;;;8.60;99.90;;;;;;5050678;28;20214;-63
2023/11/10 01:36:03;;;;;;;0.80;0.80;;;8.60;99.90;;;;;;5050263;28;20297;-63
2023/11/10 01:38:30;;;;;;;1.73;0.93;;;8.60;99.90;;;;;;5050787;28;20531;-63
2023/11/10 01:40:57;;;;;;;0.88;0.70;;;8.50;99.90;;;;;;5050693;28;20598;-63
2023/11/10 01:43:24;;;;;;;1.25;0.88;;;8.50;99.90;;;;;;5050568;28;20207;-63
2023/11/10 01:45:51;;;;;;;0.80;0.80;;;8.50;99.90;;;;;;5053277;28;20206;-63
2023/11/10 01:48:21;;;;;;;0.93;0.93;;;8.50;99.90;;;;;;5054072;28;20313;-63
2023/11/10 01:50:48;;;;;;;1.20;1.10;;;8.50;99.90;;;;;;5054043;28;20675;-63
2023/11/10 01:53:15;;;;;;;0.85;0.85;;;8.50;99.90;;;;;;5053980;28;20301;-63
2023/11/10 01:55:44;;;;;;;0.60;0.60;;;8.40;99.90;;;;;;5053682;28;20217;-63
2023/11/10 01:58:12;;;;;;;0.82;0.75;;;8.40;99.90;;;;;;5054074;28;20210;-63
2023/11/10 02:00:39;;;;;;;0.60;0.60;;;8.40;99.90;;;;;;5053805;28;20230;-63
2023/11/10 02:03:07;;;;;;;1.03;1.03;;;8.40;99.90;;;;;;5053717;28;20300;-63
2023/11/10 02:05:36;;;;;;;2.75;0.70;;;8.40;99.90;;;;;;5053462;28;20484;-63
2023/11/10 02:08:04;;;;;;;2.15;0.70;;;8.40;99.90;;;;;;5053715;28;20209;-63
2023/11/10 02:10:31;;;;;;;0.82;0.70;;;8.30;99.90;;;;;;5053683;28;20241;-63
2023/11/10 02:12:59;;;;;;;0.70;0.60;;;8.30;99.90;;;;;;5053790;28;20210;-63
2023/11/10 02:15:27;;;;;;;3.03;1.25;;;8.30;99.90;;;;;;5053522;28;20703;-63
2023/11/10 02:17:54;;;;;;;0.85;0.85;;;8.30;99.90;;;;;;5053618;28;20298;-63
2023/11/10 02:20:22;;;;;;;1.67;0.98;;;8.30;99.90;;;;;;5053602;28;20230;-63
2023/11/10 02:22:51;;;;;;;0.95;0.45;;;8.30;99.90;;;;;;5053328;28;20213;-63
2023/11/10 02:25:20;;;;;;;0.60;0.60;;;8.30;99.90;;;;;;5053353;28;20317;-63
2023/11/10 02:27:47;;;;;;;0.73;0.73;;;8.30;99.90;;;;;;5053113;28;20206;-63
2023/11/10 02:30:14;;;;;;;1.85;0.95;;;8.30;99.90;;;;;;5053184;28;20313;-63
2023/11/10 02:32:42;;;;;;;1.40;0.68;;;8.30;99.90;;;;;;5053455;28;20600;-63
2023/11/10 02:35:10;;;;;;;0.70;0.70;;;8.30;99.90;;;;;;5053201;28;20210;-63
2023/11/10 02:37:37;;;;;;;0.68;0.68;;;8.30;99.90;;;;;;5052809;28;20510;-63
2023/11/10 02:40:06;;;;;;;0.80;0.80;;;8.30;99.90;;;;;;5052938;28;20234;-63
2023/11/10 02:42:35;;;;;;;0.50;0.50;;;8.30;99.90;;;;;;5051661;28;20221;-62
2023/11/10 02:45:02;;;;;;;0.60;0.60;;;8.30;99.90;;;;;;5052296;28;20230;-63
2023/11/10 02:47:30;;;;;;;0.60;0.60;;;8.30;99.90;;;;;;5036560;28;20389;-63
2023/11/10 02:49:57;;;;;;;1.00;0.50;;;8.30;99.90;;;;;;5033027;28;20242;-63
2023/11/10 02:52:23;;;;;;;1.77;0.90;;;8.30;99.90;;;;;;5032966;28;20207;-63
2023/11/10 02:54:50;;;;;;;0.80;0.70;;;8.40;99.90;;;;;;5032877;28;20202;-63
2023/11/10 02:57:17;;;;;;;0.70;0.70;;;8.40;99.90;;;;;;5032623;28;20215;-63
2023/11/10 02:59:46;;;;;;;1.45;0.55;;;8.40;99.90;;;;;;5032799;28;20215;-63
2023/11/10 03:02:14;;;;;;;0.90;0.70;;;8.40;99.90;;;;;;5033281;28;20211;-63
2023/11/10 03:04:41;;;;;;;1.02;0.90;;;8.40;99.90;;;;;;5044182;28;20265;-63
2023/11/10 03:07:09;;;;;;;0.82;0.60;;;8.40;99.90;;;;;;5052489;28;20207;-63
2023/11/10 03:09:36;;;;;;;0.85;0.50;;;8.40;99.90;;;;;;5052574;28;20696;-63
2023/11/10 03:12:03;;;;;;;0.47;0.47;;;8.40;99.90;;;;;;5052591;28;20252;-63
2023/11/10 03:14:30;;;;;;;2.08;0.75;;;8.40;99.90;;;;;;5052448;28;20244;-63
2023/11/10 03:16:58;;;;;;;2.80;1.05;;;8.40;99.90;;;;;;5052422;28;20289;-63
2023/11/10 03:19:25;;;;;;;2.13;0.80;;;8.40;99.90;;;;;;5052586;28;20213;-63
2023/11/10 03:21:51;;;;;;;2.15;1.05;;;8.40;99.90;;;;;;5052490;28;20320;-63
2023/11/10 03:24:18;;;;;;;0.98;0.60;;;8.40;99.90;;;;;;5052186;28;20691;-63
2023/11/10 03:26:46;;;;;;;1.38;0.70;;;8.40;99.90;;;;;;5052272;28;20206;-63
2023/11/10 03:29:12;;;;;;;1.33;0.70;;;8.40;99.90;;;;;;5051868;28;20297;-63
2023/11/10 03:31:39;;;;;;;1.30;0.80;;;8.40;99.90;;;;;;5052221;28;20321;-63
2023/11/10 03:34:07;;;;;;;0.60;0.60;;;8.40;99.90;;;;;;5052199;28;21036;-63
2023/11/10 03:36:35;;;;;;;1.77;0.80;;;8.40;99.90;;;;;;5051782;28;20207;-63
2023/11/10 03:39:03;;;;;;;0.75;0.65;;;8.30;99.90;;;;;;5051995;28;20229;-63
2023/11/10 03:41:30;;;;;;;0.70;0.70;;;8.30;99.90;;;;;;5052051;28;20241;-63
2023/11/10 03:43:57;;;;;;;0.85;0.75;;;8.30;99.90;;;;;;5051981;28;20293;-63
2023/11/10 03:46:24;;;;;;;2.08;0.65;;;8.20;99.90;;;;;;5051877;28;20297;-63
2023/11/10 03:48:51;;;;;;;0.80;0.60;;;8.30;99.90;;;;;;5052013;28;20213;-63
2023/11/10 03:51:19;;;;;;;0.93;0.60;;;8.30;99.90;;;;;;5051544;28;20241;-63
2023/11/10 03:53:47;;;;;;;1.38;0.80;;;8.30;99.90;;;;;;5051028;28;20205;-63
2023/11/10 03:56:14;;;;;;;0.85;0.85;;;8.30;99.90;;;;;;5050747;28;20210;-63
2023/11/10 03:58:42;;;;;;;0.68;0.50;;;8.30;99.90;;;;;;5051864;28;20212;-63
2023/11/10 04:01:11;;;;;;;1.00;0.68;;;8.30;99.90;;;;;;5051698;28;20601;-63
2023/11/10 04:03:38;;;;;;;0.90;0.90;;;8.30;99.90;;;;;;5051549;28;20651;-63
2023/11/10 04:06:05;;;;;;;1.35;0.90;;;8.30;99.90;;;;;;5051129;28;20225;-63
2023/11/10 04:08:34;;;;;;;3.15;0.52;;;8.30;99.90;;;;;;5051249;28;20216;-63
2023/11/10 04:11:01;;;;;;;1.67;0.90;;;8.30;99.90;;;;;;5051454;28;20232;-63
2023/11/10 04:13:28;;;;;;;0.73;0.50;;;8.30;99.90;;;;;;5051365;28;20252;-63
2023/11/10 04:15:56;;;;;;;0.60;0.40;;;8.30;99.90;;;;;;5051133;28;20574;-63
2023/11/10 04:18:26;;;;;;;0.40;0.40;;;8.30;99.90;;;;;;5051267;28;20695;-63
2023/11/10 04:20:55;;;;;;;1.20;0.73;;;8.30;99.90;;;;;;5051564;28;20317;-63
2023/11/10 04:23:21;;;;;;;0.68;0.55;;;8.30;99.90;;;;;;5051444;28;20212;-63
2023/11/10 04:25:50;;;;;;;0.93;0.70;;;8.30;99.90;;;;;;5051034;28;20230;-63
2023/11/10 04:28:17;;;;;;;0.73;0.50;;;8.20;99.90;;;;;;5051131;28;20302;-63
2023/11/10 04:30:44;;;;;;;1.00;0.60;;;8.30;99.90;;;;;;5050146;28;20238;-63
2023/11/10 04:33:11;;;;;;;1.25;0.80;;;8.30;99.90;;;;;;5051339;28;20340;-63
2023/11/10 04:35:37;;;;;;;0.60;0.60;;;8.20;99.90;;;;;;5050985;28;20285;-63
2023/11/10 04:38:04;;;;;;;1.55;0.75;;;8.20;99.90;;;;;;5051270;28;20292;-63
2023/11/10 04:40:32;;;;;;;0.80;0.80;;;8.20;99.90;;;;;;5050838;28;20232;-63
2023/11/10 04:43:00;;;;;;;1.33;0.80;;;8.20;99.90;;;;;;5051009;28;20214;-63
2023/11/10 04:45:28;;;;;;;2.05;0.40;;;8.30;99.90;;;;;;5050779;28;20786;-63
2023/11/10 04:47:55;;;;;;;2.63;0.90;;;8.20;99.90;;;;;;5051021;28;20282;-63
2023/11/10 04:50:22;;;;;;;0.77;0.63;;;8.20;99.90;;;;;;5050650;28;20272;-63
2023/11/10 04:52:51;;;;;;;1.33;1.20;;;8.20;99.90;;;;;;5051018;28;20232;-63
2023/11/10 04:55:18;;;;;;;1.05;0.80;;;8.20;99.90;;;;;;5050819;28;20231;-63
2023/11/10 04:57:45;;;;;;;5.10;0.90;;;8.30;99.90;;;;;;5050647;28;20335;-63
2023/11/10 05:00:14;;;;;;;0.63;0.57;;;8.20;99.90;;;;;;5050763;28;20230;-63
2023/11/10 05:02:43;;;;;;;0.57;0.57;;;8.20;99.90;;;;;;5051040;28;20238;-63
2023/11/10 05:05:12;;;;;;;0.50;0.50;;;8.30;99.90;;;;;;5050606;28;20238;-63
2023/11/10 05:07:40;;;;;;;0.75;0.60;;;8.30;99.90;;;;;;5050660;28;20241;-63
2023/11/10 05:10:07;;;;;;;1.45;1.02;;;8.20;99.90;;;;;;5050586;28;20222;-63
2023/11/10 05:12:36;;;;;;;1.20;0.90;;;8.30;99.90;;;;;;5051002;28;20233;-63
2023/11/10 05:15:05;;;;;;;1.05;0.70;;;8.30;99.90;;;;;;5050860;28;20207;-63
2023/11/10 05:17:36;;;;;;;1.27;0.80;;;8.20;99.90;;;;;;5050444;28;20297;-63
2023/11/10 05:20:03;;;;;;;0.77;0.77;;;8.20;99.90;;;;;;5052540;28;20704;-63
2023/11/10 05:22:30;;;;;;;2.70;1.08;;;8.20;99.90;;;;;;5048007;28;20207;-63
2023/11/10 05:24:57;;;;;;;1.05;0.75;;;8.20;99.90;;;;;;5039508;28;20221;-63
2023/11/10 05:27:25;;;;;;;0.50;0.50;;;8.20;99.90;;;;;;5048721;28;20211;-63
2023/11/10 05:29:52;;;;;;;0.70;0.70;;;8.20;99.90;;;;;;5040573;28;20230;-63
2023/11/10 05:32:19;;;;;;;0.95;0.80;;;8.20;99.90;;;;;;5049348;28;20202;-63
2023/11/10 05:34:47;;;;;;;3.08;1.17;;;8.20;99.90;;;;;;5053387;28;20289;-63
2023/11/10 05:37:15;;;;;;;3.17;0.93;;;8.20;99.90;;;;;;5033634;28;20215;-63
2023/11/10 05:39:41;;;;;;;2.72;0.80;;;8.20;99.90;;;;;;5034126;28;20207;-63
2023/11/10 05:42:08;;;;;;;1.20;0.70;;;8.20;99.90;;;;;;5034294;28;20617;-63
2023/11/10 05:44:35;;;;;;;2.35;2.25;;;8.20;99.90;;;;;;5045149;28;20202;-63
2023/11/10 05:47:02;;;;;;;5.35;3.15;;;8.20;99.90;;;;;;5053739;28;20642;-63
2023/11/10 05:49:29;;;;;;;1.70;1.48;;;8.10;99.90;;;;;;5051042;28;20206;-63
2023/11/10 05:51:58;;;;;;;2.58;1.17;;;8.10;99.90;;;;;;5053836;28;20555;-63
2023/11/10 05:54:25;;;;;;;1.15;1.05;;;8.20;99.90;;;;;;5053708;28;20590;-63
2023/11/10 05:56:52;;;;;;;1.80;1.70;;;8.20;99.90;;;;;;5053760;28;20633;-63
2023/11/10 05:59:21;;;;;;;1.00;1.00;;;8.10;99.90;;;;;;5053838;28;20764;-63
2023/11/10 06:01:48;;;;;;;1.30;1.30;;;8.10;99.90;;;;;;5053883;28;20280;-63
2023/11/10 06:04:15;;;;;;;2.28;1.17;;;8.10;99.90;;;;;;5053856;28;20730;-63
2023/11/10 06:06:43;;;;;;;1.42;1.40;;;8.10;99.90;;;;;;5053471;28;20238;-63
2023/11/10 06:09:11;;;;;;;1.95;1.40;;;8.10;99.90;;;;;;5053820;28;20704;-63
2023/11/10 06:11:38;;;;;;;1.48;1.00;;;8.20;99.90;;;;;;5053487;28;20254;-63
2023/11/10 06:14:05;;;;;;;1.83;1.50;;;8.10;99.90;;;;;;5053730;28;20212;-63
2023/11/10 06:16:32;;;;;;;1.95;1.77;;;8.10;99.90;;;;;;5053439;28;20199;-63
2023/11/10 06:18:59;;;;;;;1.80;1.35;;;8.10;99.90;;;;;;5053497;28;20590;-63
2023/11/10 06:21:27;;;;;;;1.42;0.93;;;8.10;99.90;;;;;;5053469;28;20312;-63
2023/11/10 06:23:54;;;;;;;2.15;1.35;;;8.10;99.90;;;;;;5053758;28;20211;-63
2023/11/10 06:26:23;;;;;;;2.40;2.20;;;8.10;99.90;;;;;;5053204;28;20793;-63
2023/11/10 06:28:50;;;;;;;4.65;1.95;;;8.10;99.90;;;;;;5053354;28;20210;-63
2023/11/10 06:31:20;;;;;;;2.15;1.42;;;8.10;99.90;;;;;;5052296;28;20230;-63
2023/11/10 06:33:48;;;;;;;2.33;2.20;;;8.10;99.90;;;;;;5053171;28;20210;-63
2023/11/10 06:36:16;;;;;;;4.75;3.17;;;8.10;99.90;;;;;;5053136;28;20241;-63
2023/11/10 06:38:44;;;;;;;3.03;1.30;;;8.10;99.90;;;;;;5053071;28;20811;-63
2023/11/10 06:41:10;;;;;;;2.63;2.42;;;8.10;99.90;;;;;;5053075;28;20321;-63
2023/11/10 06:43:39;;;;;;;3.80;1.65;;;8.10;99.90;;;;;;5053034;28;20293;-63
2023/11/10 06:46:06;;;;;;;1.83;1.15;;;8.10;99.90;;;;;;5052388;28;20222;-63
2023/11/10 06:48:33;;;;;;;1.55;1.00;;;8.10;99.90;;;;;;5052969;28;20217;-63
2023/11/10 06:51:00;;;;;;;3.80;1.08;;;8.10;99.90;;;;;;5052836;28;20244;-63
2023/11/10 06:53:27;;;;;;;2.60;1.00;;;8.10;99.90;;;;;;5052765;28;20237;-63
2023/11/10 06:55:54;;;;;;;1.92;1.35;;;8.20;99.90;;;;;;5052509;28;20210;-63
2023/11/10 06:58:22;;;;;;;1.88;1.20;;;8.20;99.90;;;;;;5052599;28;20238;-63
2023/11/10 07:00:50;;;;;;;2.80;1.80;;;8.10;99.90;;;;;;5052633;28;20608;-63
2023/11/10 07:03:19;;;;;;;2.63;2.42;;;8.20;99.90;;;;;;5052578;28;20203;-63
2023/11/10 07:05:46;;;;;;;1.88;1.60;;;8.20;99.90;;;;;;5052263;28;20226;-63
2023/11/10 07:08:13;;;;;;;2.92;1.15;;;8.20;99.90;;;;;;5052273;28;20210;-63
2023/11/10 07:10:43;;;;;;;1.45;1.35;;;8.20;99.90;;;;;;5052510;28;20230;-62
2023/11/10 07:13:10;;;;;;;1.33;1.30;;;8.20;99.90;;;;;;5052156;28;20232;-62
2023/11/10 07:15:37;;;;;;;0.85;0.85;;;8.20;99.90;;;;;;5052309;28;20593;-63
2023/11/10 07:18:06;;;;;;;2.10;1.38;;;8.30;99.90;;;;;;5052566;28;20276;-63
2023/11/10 07:20:33;;;;;;;2.30;2.10;;;8.30;99.90;;;;;;5051990;28;20575;-63
2023/11/10 07:22:59;;;;;;;1.30;1.30;;;8.30;99.90;;;;;;5034939;28;20299;-63
2023/11/10 07:25:27;;;;;;;1.15;0.90;;;8.30;99.90;;;;;;5032041;28;20314;-63
2023/11/10 07:27:54;;;;;;;1.15;0.90;;;8.30;99.90;;;;;;5032444;28;20211;-63
2023/11/10 07:30:22;;;;;;;0.88;0.80;;;8.30;99.90;;;;;;5032327;28;20230;-63
2023/11/10 07:32:50;;;;;;;0.88;0.82;;;8.30;99.90;;;;;;5032168;28;20215;-63
2023/11/10 07:35:20;;;;;;;2.40;1.00;;;8.30;99.90;;;;;;5031944;28;20203;-63
2023/11/10 07:37:46;;;;;;;1.20;1.05;;;8.30;99.90;;;;;;5031741;28;20215;-63
2023/11/10 07:40:15;;;;;;;0.88;0.88;;;8.30;99.90;;;;;;5031887;28;20231;-63
2023/11/10 07:42:43;;;;;;;1.20;1.10;;;8.40;99.90;;;;;;5031146;28;20732;-63
2023/11/10 07:45:14;;;;;;;1.98;1.13;;;8.40;99.90;;;;;;5031902;28;20604;-63
2023/11/10 07:47:41;;;;;;;1.58;1.17;;;8.40;99.90;;;;;;5031663;28;20214;-63
2023/11/10 07:50:09;;;;;;;2.38;1.08;;;8.50;99.90;;;;;;5031475;28;20250;-63
2023/11/10 07:52:37;;;;;;;1.40;1.27;;;8.50;99.90;;;;;;5031740;28;20210;-63
2023/11/10 07:55:05;;;;;;;4.78;1.20;;;8.60;99.90;;;;;;5031750;28;20321;-63
2023/11/10 07:57:33;;;;;;;0.70;0.70;;;8.60;99.90;;;;;;5031717;28;20207;-63
2023/11/10 08:00:00;;;;;;;0.80;0.80;;;8.60;99.90;;;;;;5031640;28;20223;-63
2023/11/10 08:02:26;;;;;;;1.40;1.30;;;8.70;99.90;;;;;;5031792;28;20207;-63
2023/11/10 08:04:54;;;;;;;0.93;0.90;;;8.70;99.90;;;;;;5031568;28;20586;-63
2023/11/10 08:07:23;;;;;;;1.55;0.90;;;8.70;99.90;;;;;;5031584;28;20223;-62
2023/11/10 08:09:51;;;;;;;2.15;0.93;;;8.80;99.90;;;;;;5049462;28;20240;-63
2023/11/10 08:12:18;;;;;;;2.28;1.23;;;8.80;99.90;;;;;;5037307;28;20298;-63
2023/11/10 08:14:46;;;;;;;1.75;1.02;;;8.90;99.90;;;;;;5049199;28;20297;-63
2023/11/10 08:17:13;;;;;;;0.82;0.80;;;8.90;99.90;;;;;;5046272;28;20702;-63
2023/11/10 08:19:41;;;;;;;0.85;0.80;;;9.00;99.90;;;;;;5047460;28;20206;-63
2023/11/10 08:22:08;;;;;;;1.67;1.58;;;9.00;99.90;;;;;;5047481;28;20207;-63
2023/11/10 08:24:35;;;;;;;1.45;1.10;;;9.00;99.90;;;;;;5041904;28;20297;-63
2023/11/10 08:27:04;;;;;;;0.98;0.98;;;9.00;99.90;;;;;;5042216;28;20226;-63
2023/11/10 08:29:30;;;;;;;0.70;0.70;;;9.00;99.90;;;;;;5042253;28;20202;-63
2023/11/10 08:31:57;;;;;;;0.80;0.80;;;9.10;99.90;;;;;;5050973;28;20584;-63
2023/11/10 08:34:24;;;;;;;0.60;0.60;;;9.10;99.90;;;;;;5046110;28;20215;-63
2023/11/10 08:36:51;;;;;;;0.70;0.70;;;9.10;99.90;;;;;;5045898;28;21139;-63
2023/11/10 08:39:18;;;;;;;1.30;1.20;;;9.10;99.90;;;;;;5037559;28;20218;-63
2023/11/10 08:41:48;;;;;;;0.90;0.90;;;9.10;99.90;;;;;;5037569;28;20469;-63
2023/11/10 08:44:18;;;;;;;2.45;1.83;;;9.10;99.90;;;;;;5046912;28;20887;-63
2023/11/10 08:46:45;;;;;;;0.75;0.75;;;9.10;99.90;;;;;;5050103;28;20305;-63
2023/11/10 08:49:12;;;;;;;2.25;1.10;;;9.10;99.90;;;;;;5047007;28;20216;-62
2023/11/10 08:51:39;;;;;;;0.83;0.83;;;9.20;99.90;;;;;;5049883;28;20244;-63
2023/11/10 08:54:06;;;;;;;2.05;0.60;;;9.20;99.90;;;;;;5045803;28;20559;-63
2023/11/10 08:56:33;;;;;;;1.47;0.80;;;9.30;99.90;;;;;;5048946;28;20248;-63
2023/11/10 08:59:00;;;;;;;0.98;0.98;;;9.30;99.90;;;;;;5046364;28;20470;-63
2023/11/10 09:01:28;;;;;;;0.95;0.85;;;9.40;99.90;;;;;;5053747;28;20776;-63
2023/11/10 09:06:23;;;;;;;1.25;1.10;;;9.50;99.90;;;;;;5009828;28;20485;-63
2023/11/10 09:08:51;;;;;;;1.53;1.10;;;9.60;99.90;;;;;;5013121;28;20210;-63
2023/11/10 09:11:18;;;;;;;1.80;0.90;;;9.60;99.90;;;;;;5014894;28;20439;-64
2023/11/10 09:13:45;;;;;;;0.90;0.90;;;9.70;99.90;;;;;;5014066;28;20447;-64
2023/11/10 09:16:12;;;;;;;0.73;0.70;;;9.70;99.90;;;;;;5013381;28;20556;-64
2023/11/10 09:18:40;;;;;;;2.73;1.30;;;9.70;99.90;;;;;;5012171;28;20442;-62
2023/11/10 09:21:07;;;;;;;1.00;0.90;;;9.70;99.90;;;;;;4999106;28;20457;-64
2023/11/10 09:23:34;;;;;;;3.03;0.93;;;9.70;99.90;;;;;;5014280;28;20446;-63
2023/11/10 09:26:02;;;;;;;3.23;1.10;;;9.70;99.90;;;;;;5013297;28;20490;-63
2023/11/10 09:28:31;;;;;;;1.90;0.73;;;9.80;99.90;;;;;;5013287;28;20466;-63
2023/11/10 09:30:57;;;;;;;1.10;0.95;;;9.80;99.90;;;;;;5010988;28;20966;-63
2023/11/10 09:33:24;;;;;;;0.80;0.80;;;9.80;99.90;;;;;;5013558;28;20302;-63
2023/11/10 09:35:53;;;;;;;1.07;0.60;;;9.80;99.90;;;;;;5013663;28;20528;-63
2023/11/10 09:38:20;;;;;;;1.60;0.73;;;9.80;99.90;;;;;;5011647;28;20447;-63
2023/11/10 09:40:47;;;;;;;1.13;0.83;;;9.90;99.90;;;;;;5012221;28;20822;-63
2023/11/10 09:43:14;;;;;;;0.80;0.80;;;9.90;99.90;;;;;;5012478;28;20469;-63
2023/11/10 09:45:48;;;;;;;2.17;0.80;;;9.90;99.90;;;;;;5012233;28;20557;-63
2023/11/10 09:48:16;;;;;;;2.03;0.93;;;9.90;99.90;;;;;;5013350;28;20444;-63
2023/11/10 09:50:47;;;;;;;0.60;0.60;;;9.90;99.90;;;;;;5012921;28;20501;-63
2023/11/10 09:53:15;;;;;;;1.80;1.23;;;10.00;99.90;;;;;;5013326;28;20455;-63
2023/11/10 09:55:42;;;;;;;0.60;0.60;;;10.10;99.90;;;;;;5012590;28;20470;-63
2023/11/10 09:58:10;;;;;;;1.17;0.90;;;10.20;99.90;;;;;;5013171;28;20505;-63
2023/11/10 10:00:39;;;;;;;2.10;1.40;;;10.20;99.90;;;;;;5013453;28;20446;-64
2023/11/10 10:03:06;;;;;;;3.07;1.40;;;10.30;99.90;;;;;;5012531;28;20501;-63
2023/11/10 10:05:33;;;;;;;4.67;1.03;;;10.40;99.90;;;;;;5012037;28;20482;-63
2023/11/10 10:07:59;;;;;;;0.80;0.80;;;10.30;99.90;;;;;;5013191;28;20521;-64
2023/11/10 10:10:28;;;;;;;1.53;1.00;;;10.30;99.90;;;;;;5011820;28;20443;-64
2023/11/10 10:12:56;;;;;;;1.30;1.20;;;10.40;99.90;;;;;;5012700;28;20549;-63
2023/11/10 10:15:27;;;;;;;1.00;1.00;;;10.70;99.90;;;;;;5012954;28;20482;-64
2023/11/10 10:17:54;;;;;;;2.00;0.80;;;11.00;99.90;;;;;;5013010;28;20446;-64
2023/11/10 10:20:22;;;;;;;1.03;0.60;;;11.10;99.90;;;;;;5013065;28;20442;-64
2023/11/10 10:22:50;;;;;;;1.80;0.87;;;11.10;99.90;;;;;;5012942;28;21021;-64
2023/11/10 10:25:20;;;;;;;2.97;1.00;;;11.30;99.90;;;;;;5011391;28;20485;-64
2023/11/10 10:27:50;;;;;;;1.10;1.00;;;11.40;99.90;;;;;;5011813;28;20525;-64
2023/11/10 10:30:18;;;;;;;0.90;0.90;;;11.60;99.90;;;;;;5011479;28;20455;-64
2023/11/10 10:32:45;;;;;;;0.70;0.70;;;11.80;99.90;;;;;;5011121;28;20454;-64
2023/11/10 10:35:13;;;;;;;1.27;0.90;;;11.90;99.90;;;;;;5011590;28;20909;-64
2023/11/10 10:37:40;;;;;;;0.60;0.53;;;12.00;99.90;;;;;;5011871;28;20443;-65
2023/11/10 10:40:11;;;;;;;1.83;1.20;;;12.20;99.90;;;;;;5012585;28;20533;-64
2023/11/10 10:42:43;;;;;;;0.70;0.70;;;12.40;99.90;;;;;;5012644;28;20487;-65
2023/11/10 10:45:12;;;;;;;0.97;0.97;;;12.60;99.90;;;;;;5012163;28;20470;-64
2023/11/10 10:47:39;;;;;;;1.70;1.23;;;12.80;99.90;;;;;;5011407;28;20574;-65
2023/11/10 10:50:08;;;;;;;0.80;0.80;;;13.10;99.90;;;;;;5011292;28;20533;-64
2023/11/10 10:52:35;;;;;;;0.87;0.87;;;13.20;99.90;;;;;;5011279;28;21035;-65
2023/11/10 10:55:04;;;;;;;0.50;0.50;;;13.10;99.90;;;;;;5011822;28;20465;-64
2023/11/10 10:57:33;;;;;;;0.70;0.70;;;13.10;99.90;;;;;;5011228;28;20534;-64
2023/11/10 11:00:00;;;;;;;1.57;1.00;;;13.10;99.90;;;;;;5011289;28;20446;-64
2023/11/10 11:02:30;;;;;;;1.27;0.83;;;13.00;99.90;;;;;;5011721;28;20486;-64
2023/11/10 11:05:05;;;;;;;0.90;0.80;;;12.80;99.90;;;;;;5009716;28;20490;-65
2023/11/10 11:07:54;;;;;;;0.90;0.90;;;12.70;99.90;;;;;;5010819;28;20490;-64
2023/11/10 11:10:45;;;;;;;1.30;1.00;;;12.70;99.90;;;;;;5006214;28;20948;-65
2023/11/10 11:13:36;;;;;;;1.03;0.77;;;12.60;99.90;;;;;;5011856;28;20443;-64
2023/11/10 11:16:34;;;;;;;0.60;0.60;;;12.60;99.90;;;;;;4991957;28;20522;-64
2023/11/10 11:19:20;;;;;;;1.37;1.30;;;12.70;99.90;;;;;;4994972;28;20439;-65
2023/11/10 11:21:50;;;;;;;1.43;1.00;;;12.80;99.90;;;;;;5010531;28;20435;-64
2023/11/10 11:24:19;;;;;;;0.80;0.80;;;13.00;99.90;;;;;;5011367;28;20513;-64
2023/11/10 11:26:55;;;;;;;1.43;1.10;;;13.10;99.90;;;;;;5011290;28;20577;-64
2023/11/10 11:29:22;;;;;;;0.60;0.60;;;13.40;99.90;;;;;;4991649;28;20451;-65
2023/11/10 11:31:49;;;;;;;0.77;0.77;;;13.50;99.90;;;;;;5006870;28;20453;-65
2023/11/10 11:34:21;;;;;;;0.60;0.60;;;13.60;99.90;;;;;;5010883;28;20494;-64
2023/11/10 11:36:49;;;;;;;0.80;0.80;;;13.60;99.90;;;;;;5011150;28;20525;-65
2023/11/10 11:39:19;;;;;;;2.13;0.70;;;13.40;99.90;;;;;;5011496;28;20840;-64
2023/11/10 11:41:50;;;;;;;0.90;0.37;;;13.40;99.90;;;;;;5011257;28;20447;-65
2023/11/10 11:44:30;;;;;;;0.40;0.40;;;13.60;99.90;;;;;;5011364;28;20561;-64
2023/11/10 11:46:58;;;;;;;0.93;0.63;;;13.80;99.90;;;;;;5011375;28;20489;-64
2023/11/10 11:49:27;;;;;;;0.40;0.40;;;13.80;99.90;;;;;;5011555;28;20451;-65
2023/11/10 11:51:56;;;;;;;0.70;0.57;;;13.80;99.90;;;;;;5011549;28;20451;-64
2023/11/10 11:54:26;;;;;;;0.63;0.63;;;13.90;99.90;;;;;;5011293;28;20481;-64
2023/11/10 11:56:54;;;;;;;2.00;0.60;;;14.00;99.90;;;;;;5011133;28;20450;-65
2023/11/10 11:59:21;;;;;;;1.63;0.70;;;13.90;99.90;;;;;;5011209;28;20490;-65
2023/11/10 12:01:49;;;;;;;37.73;10.10;;;14.10;99.90;;;;;;5011460;28;20457;-65
2023/11/10 12:04:16;;;;;;;2.30;1.80;;;14.20;99.90;;;;;;5001276;28;20542;-65
2023/11/10 12:06:44;;;;;;;0.73;0.60;;;14.40;99.90;;;;;;4991343;28;20498;-65
2023/11/10 12:09:12;;;;;;;1.30;0.40;;;14.60;99.90;;;;;;4999732;28;20800;-64
2023/11/10 12:11:40;;;;;;;0.60;0.60;;;14.70;98.40;;;;;;5010793;28;20903;-64
2023/11/10 12:14:09;;;;;;;0.57;0.50;;;14.70;98.50;;;;;;5010732;28;20451;-65
2023/11/10 12:16:36;;;;;;;0.87;0.60;;;15.00;99.30;;;;;;5009914;28;21141;-65
2023/11/10 12:19:04;;;;;;;1.13;0.53;;;15.20;98.40;;;;;;5010219;28;20504;-65
2023/11/10 12:21:32;;;;;;;0.67;0.40;;;15.40;98.70;;;;;;5010659;28;20447;-64
2023/11/10 12:24:03;;;;;;;0.60;0.60;;;15.70;98.30;;;;;;5010566;28;20451;-63
2023/11/10 12:26:35;;;;;;;0.40;0.40;;;16.10;96.90;;;;;;5010625;28;20476;-63
2023/11/10 12:29:03;;;;;;;1.37;0.70;;;16.50;95.60;;;;;;5010621;28;20533;-64
2023/11/10 12:31:32;;;;;;;0.90;0.80;;;16.70;96.70;;;;;;5010808;28;20814;-64
2023/11/10 12:34:00;;;;;;;1.43;0.50;;;16.70;94.90;;;;;;5010543;28;20454;-64
2023/11/10 12:36:31;;;;;;;1.70;0.83;;;16.40;93.90;;;;;;5010444;28;20537;-64
2023/11/10 12:39:01;;;;;;;1.53;0.50;;;16.10;95.70;;;;;;5011219;28;20447;-63
2023/11/10 12:41:28;;;;;;;1.13;0.60;;;16.30;94.80;;;;;;5010677;28;20455;-63
2023/11/10 12:43:55;;;;;;;0.60;0.60;;;16.40;94.60;;;;;;5010973;28;20450;-64
2023/11/10 12:46:23;;;;;;;1.13;0.70;;;16.30;93.50;;;;;;5010500;28;20967;-63
2023/11/10 12:48:53;;;;;;;1.70;0.53;;;16.00;93.50;;;;;;5010836;28;20845;-64
2023/11/10 12:51:23;;;;;;;1.60;0.50;;;15.60;93.10;;;;;;5007605;28;20451;-63
2023/11/10 12:54:06;;;;;;;0.60;0.60;;;15.30;94.00;;;;;;5010337;28;20443;-62
2023/11/10 12:56:33;;;;;;;0.80;0.80;;;14.80;94.50;;;;;;5007405;28;20870;-63
2023/11/10 12:59:03;;;;;;;2.50;0.67;;;14.40;96.00;;;;;;5010100;28;20462;-63
2023/11/10 13:01:30;;;;;;;1.00;0.63;;;14.00;96.20;;;;;;5010360;28;20500;-63
2023/11/10 13:03:57;;;;;;;0.93;0.90;;;13.70;97.40;;;;;;5010904;28;20874;-64
2023/11/10 13:06:24;;;;;;;1.13;0.50;;;13.50;98.30;;;;;;5009010;28;20454;-63
2023/11/10 13:08:51;;;;;;;1.90;1.10;;;13.20;98.80;;;;;;5008916;28;20868;-63